createdAt,value
2023-04-15T00:00:30.857Z,10.50
2023-04-15T00:02:57.579Z,11.68
2023-04-15T00:05:24.260Z,14.70
2023-04-15T00:07:51.444Z,12.23
2023-04-15T00:10:18.031Z,12.73
2023-04-15T00:12:44.747Z,12.90
2023-04-15T00:15:12.601Z,14.25
2023-04-15T00:17:40.025Z,13.48
2023-04-15T00:20:07.298Z,11.95
2023-04-15T00:22:33.953Z,11.98
2023-04-15T00:25:00.741Z,12.07
2023-04-15T00:27:27.354Z,9.68
2023-04-15T00:29:54.089Z,12.35
2023-04-15T00:32:21.676Z,10.93
2023-04-15T00:34:48.334Z,10.77
2023-04-15T00:37:15.018Z,8.18
2023-04-15T00:39:41.953Z,7.82
2023-04-15T00:42:09.240Z,9.35
2023-04-15T00:44:35.842Z,7.80
2023-04-15T00:47:04.023Z,8.80
2023-04-15T00:49:30.950Z,9.82
2023-04-15T00:51:57.718Z,12.73
2023-04-15T00:54:24.367Z,11.27
2023-04-15T00:56:51.346Z,14.40
2023-04-15T00:59:17.992Z,13.77
2023-04-15T01:01:44.883Z,19.83
2023-04-15T01:04:12.412Z,15.10
2023-04-15T01:06:39.268Z,19.23
2023-04-15T01:09:06.408Z,15.02
2023-04-15T01:11:35.946Z,14.43
2023-04-15T01:14:03.181Z,16.83
2023-04-15T01:16:29.958Z,16.73
2023-04-15T01:18:57.170Z,15.45
2023-04-15T01:21:23.931Z,15.80
2023-04-15T01:23:51.713Z,14.07
2023-04-15T01:26:18.713Z,14.98
2023-04-15T01:28:45.336Z,12.85
2023-04-15T01:31:16.711Z,12.88
2023-04-15T01:33:43.682Z,13.30
2023-04-15T01:36:11.042Z,12.82
2023-04-15T01:38:38.293Z,15.90
2023-04-15T01:41:06.938Z,13.73
2023-04-15T01:43:34.605Z,17.10
2023-04-15T01:46:01.809Z,15.48
2023-04-15T01:48:28.496Z,12.57
2023-04-15T01:50:57.684Z,14.73
2023-04-15T01:53:25.410Z,13.10
2023-04-15T01:55:53.351Z,11.63
2023-04-15T01:58:20.142Z,11.73
2023-04-15T02:00:47.358Z,10.55
2023-04-15T02:03:14.138Z,10.80
2023-04-15T02:05:40.839Z,12.32
2023-04-15T02:08:07.649Z,11.23
2023-04-15T02:10:34.427Z,13.75
2023-04-15T02:13:01.334Z,13.32
2023-04-15T02:15:28.121Z,10.38
2023-04-15T02:17:55.524Z,13.80
2023-04-15T02:20:22.700Z,10.32
2023-04-15T02:22:50.036Z,10.25
2023-04-15T02:25:20.576Z,13.32
2023-04-15T02:27:47.411Z,11.90
2023-04-15T02:30:14.306Z,12.10
2023-04-15T02:32:44.006Z,15.45
2023-04-15T02:35:10.846Z,12.70
2023-04-15T02:37:43.539Z,12.40
2023-04-15T02:40:13.970Z,11.75
2023-04-15T02:42:41.286Z,12.18
2023-04-15T02:45:08.545Z,12.65
2023-04-15T02:47:36.242Z,11.68
2023-04-15T02:50:04.151Z,11.38
2023-04-15T02:52:31.260Z,14.13
2023-04-15T02:55:00.823Z,13.10
2023-04-15T02:57:29.230Z,14.80
2023-04-15T02:59:55.963Z,12.75
2023-04-15T03:02:22.774Z,17.13
2023-04-15T03:04:49.701Z,11.80
2023-04-15T03:07:17.960Z,15.05
2023-04-15T03:09:44.952Z,13.90
2023-04-15T03:12:11.652Z,13.30
2023-04-15T03:14:38.449Z,13.90
2023-04-15T03:17:08.153Z,13.20
2023-04-15T03:19:36.135Z,13.73
2023-04-15T03:22:02.997Z,15.07
2023-04-15T03:24:30.499Z,11.25
2023-04-15T03:26:57.960Z,13.15
2023-04-15T03:29:30.962Z,14.82
2023-04-15T03:31:57.578Z,13.43
2023-04-15T03:34:24.387Z,12.55
2023-04-15T03:36:51.404Z,13.15
2023-04-15T03:39:18.053Z,13.32
2023-04-15T03:41:44.755Z,10.63
2023-04-15T03:44:11.632Z,13.85
2023-04-15T03:46:38.394Z,12.70
2023-04-15T03:49:07.308Z,13.45
2023-04-15T03:51:34.072Z,17.98
2023-04-15T03:54:00.774Z,15.27
2023-04-15T03:56:27.440Z,14.40
2023-04-15T03:58:54.156Z,18.30
2023-04-15T04:01:20.899Z,13.63
2023-04-15T04:03:47.790Z,15.90
2023-04-15T04:06:15.766Z,16.38
2023-04-15T04:08:42.520Z,15.73
2023-04-15T04:11:09.211Z,14.70
2023-04-15T04:13:36.457Z,20.70
2023-04-15T04:16:05.240Z,17.77
2023-04-15T04:18:32.846Z,17.38
2023-04-15T04:20:59.490Z,12.85
2023-04-15T04:23:26.572Z,15.32
2023-04-15T04:25:53.672Z,13.40
2023-04-15T04:28:20.319Z,12.63
2023-04-15T04:30:46.929Z,14.50
2023-04-15T04:33:21.713Z,14.23
2023-04-15T04:35:48.335Z,18.40
2023-04-15T04:38:15.060Z,15.55
2023-04-15T04:40:41.761Z,14.75
2023-04-15T04:43:09.726Z,17.63
2023-04-15T04:45:36.398Z,16.15
2023-04-15T04:48:07.239Z,14.90
2023-04-15T04:50:34.816Z,14.65
2023-04-15T04:53:01.987Z,15.00
2023-04-15T04:55:28.880Z,17.90
2023-04-15T04:57:55.758Z,16.48
2023-04-15T05:00:22.933Z,18.25
2023-04-15T05:02:53.543Z,19.05
2023-04-15T05:05:20.311Z,16.90
2023-04-15T05:07:47.409Z,18.38
2023-04-15T05:10:15.413Z,14.43
2023-04-15T05:12:41.994Z,12.20
2023-04-15T05:15:09.254Z,13.25
2023-04-15T05:17:36.077Z,15.55
2023-04-15T05:20:03.922Z,14.18
2023-04-15T05:22:30.721Z,16.23
2023-04-15T05:24:57.374Z,13.85
2023-04-15T05:27:24.760Z,20.40
2023-04-15T05:29:51.734Z,20.67
2023-04-15T05:32:18.449Z,17.60
2023-04-15T05:34:45.744Z,22.23
2023-04-15T05:37:12.882Z,19.38
2023-04-15T05:39:39.536Z,16.92
2023-04-15T05:42:06.354Z,16.23
2023-04-15T05:44:33.130Z,16.45
2023-04-15T05:46:59.912Z,16.02
2023-04-15T05:49:26.577Z,11.65
2023-04-15T05:51:53.192Z,13.45
2023-04-15T05:54:20.388Z,14.93
2023-04-15T05:56:47.639Z,18.67
2023-04-15T05:59:14.255Z,16.77
2023-04-15T06:01:40.854Z,17.25
2023-04-15T06:04:07.592Z,12.98
2023-04-15T06:06:34.817Z,14.43
2023-04-15T06:09:01.742Z,18.10
2023-04-15T06:11:31.406Z,18.20
2023-04-15T06:13:58.205Z,16.92
2023-04-15T06:16:24.923Z,19.17
2023-04-15T06:18:51.622Z,17.20
2023-04-15T06:21:18.893Z,13.55
2023-04-15T06:23:45.723Z,14.38
2023-04-15T06:26:12.368Z,23.17
2023-04-15T06:28:38.955Z,13.95
2023-04-15T06:31:05.783Z,9.98
2023-04-15T06:33:32.468Z,14.63
2023-04-15T06:35:59.151Z,12.77
2023-04-15T06:38:25.962Z,16.05
2023-04-15T06:40:58.604Z,10.43
2023-04-15T06:43:25.948Z,17.98
2023-04-15T06:45:52.674Z,14.27
2023-04-15T06:48:19.381Z,10.75
2023-04-15T06:50:46.113Z,13.43
2023-04-15T06:53:12.826Z,11.13
2023-04-15T06:55:40.373Z,10.07
2023-04-15T06:58:08.059Z,9.35
2023-04-15T07:00:34.681Z,10.25
2023-04-15T07:03:03.869Z,12.18
2023-04-15T07:05:31.168Z,11.55
2023-04-15T07:07:57.976Z,10.38
2023-04-15T07:10:25.755Z,9.90
2023-04-15T07:12:52.685Z,11.82
2023-04-15T07:15:19.730Z,8.07
2023-04-15T07:17:46.571Z,11.85
2023-04-15T07:20:16.675Z,8.77
2023-04-15T07:22:43.721Z,11.00
2023-04-15T07:25:11.477Z,11.40
2023-04-15T07:27:38.196Z,9.77
2023-04-15T07:30:05.370Z,9.80
2023-04-15T07:32:32.740Z,8.30
2023-04-15T07:34:59.408Z,7.10
2023-04-15T07:37:30.069Z,11.23
2023-04-15T07:39:56.862Z,9.77
2023-04-15T07:42:23.534Z,9.52
2023-04-15T07:44:50.292Z,8.25
2023-04-15T07:47:16.961Z,8.90
2023-04-15T07:49:44.535Z,9.13
2023-04-15T07:52:11.590Z,9.52
2023-04-15T07:54:38.259Z,10.50
2023-04-15T07:57:05.077Z,10.50
2023-04-15T07:59:33.560Z,9.80
2023-04-15T08:02:00.413Z,9.25
2023-04-15T08:04:27.679Z,9.63
2023-04-15T08:06:54.857Z,9.23
2023-04-15T08:09:21.868Z,13.15
2023-04-15T08:11:51.776Z,10.95
2023-04-15T08:14:18.549Z,13.13
2023-04-15T08:16:45.281Z,9.93
2023-04-15T08:19:12.100Z,8.27
2023-04-15T08:21:38.929Z,9.38
2023-04-15T08:24:07.080Z,7.18
2023-04-15T08:26:33.766Z,12.70
2023-04-15T08:29:00.761Z,10.95
2023-04-15T08:31:30.029Z,10.88
2023-04-15T08:33:58.032Z,8.75
2023-04-15T08:36:24.677Z,8.88
2023-04-15T08:38:51.356Z,10.77
2023-04-15T08:41:23.631Z,12.70
2023-04-15T08:43:58.040Z,12.55
2023-04-15T08:46:24.922Z,11.30
2023-04-15T08:48:52.295Z,13.20
2023-04-15T08:51:19.168Z,7.95
2023-04-15T08:53:47.547Z,9.50
2023-04-15T08:56:15.739Z,7.38
2023-04-15T08:58:44.355Z,7.72
2023-04-15T09:01:13.303Z,11.15
2023-04-15T09:03:40.885Z,11.60
2023-04-15T09:06:07.725Z,11.13
2023-04-15T09:08:37.161Z,10.57
2023-04-15T09:11:04.131Z,9.15
2023-04-15T09:13:31.397Z,11.15
2023-04-15T09:16:00.764Z,9.95
2023-04-15T09:18:29.771Z,12.00
2023-04-15T09:20:57.074Z,9.27
2023-04-15T09:23:23.754Z,10.65
2023-04-15T09:25:50.713Z,13.27
2023-04-15T09:28:26.073Z,12.45
2023-04-15T09:33:22.430Z,9.02
2023-04-15T09:36:01.969Z,8.93
2023-04-15T09:38:29.699Z,8.88
2023-04-15T09:40:56.360Z,8.23
2023-04-15T09:43:23.949Z,9.23
2023-04-15T09:45:54.420Z,8.35
2023-04-15T09:48:29.074Z,10.10
2023-04-15T09:50:58.757Z,10.48
2023-04-15T09:53:26.518Z,10.68
2023-04-15T09:55:58.233Z,10.50
2023-04-15T09:58:26.769Z,10.32
2023-04-15T10:00:54.743Z,7.63
2023-04-15T10:03:23.753Z,10.48
2023-04-15T10:05:52.796Z,6.70
2023-04-15T10:08:21.768Z,6.45
2023-04-15T10:10:49.232Z,11.60
2023-04-15T10:13:26.723Z,9.20
2023-04-15T10:16:05.791Z,8.88
2023-04-15T10:18:35.401Z,8.43
2023-04-15T10:21:02.445Z,7.43
2023-04-15T10:23:29.282Z,7.53
2023-04-15T10:25:56.373Z,10.45
2023-04-15T10:28:23.226Z,7.32
2023-04-15T10:30:50.282Z,6.82
2023-04-15T10:33:23.708Z,9.35
2023-04-15T10:35:51.887Z,10.43
2023-04-15T10:38:38.854Z,10.23
2023-04-15T10:41:28.202Z,10.82
2023-04-15T10:44:05.033Z,12.02
2023-04-15T10:46:39.453Z,8.85
2023-04-15T10:49:13.271Z,9.18
2023-04-15T10:52:01.489Z,9.07
2023-04-15T10:54:28.054Z,10.88
2023-04-15T10:57:01.665Z,13.20
2023-04-15T10:59:35.662Z,7.47
2023-04-15T11:02:04.427Z,9.38
2023-04-15T11:05:00.065Z,11.13
2023-04-15T11:07:50.531Z,7.70
2023-04-15T11:10:26.361Z,10.48
2023-04-15T11:13:17.295Z,10.88
2023-04-15T11:15:47.963Z,9.32
2023-04-15T11:18:23.203Z,10.98
2023-04-15T11:23:38.337Z,10.80
2023-04-15T11:26:09.832Z,8.13
2023-04-15T11:28:38.741Z,12.20
2023-04-15T11:31:13.892Z,11.18
2023-04-15T11:33:59.632Z,8.95
2023-04-15T11:38:54.625Z,8.70
2023-04-15T11:41:23.275Z,8.82
2023-04-15T11:43:50.958Z,15.98
2023-04-15T11:46:18.082Z,9.70
2023-04-15T11:48:47.158Z,9.98
2023-04-15T11:51:14.315Z,8.63
2023-04-15T11:53:52.963Z,10.05
2023-04-15T11:56:24.144Z,7.70
2023-04-15T11:59:02.425Z,8.55
2023-04-15T12:01:37.153Z,9.43
2023-04-15T12:04:12.113Z,13.25
2023-04-15T12:06:39.250Z,12.90
2023-04-15T12:09:16.917Z,10.57
2023-04-15T12:11:47.613Z,9.93
2023-04-15T12:14:30.149Z,9.60
2023-04-15T12:17:08.086Z,13.85
2023-04-15T12:19:40.241Z,7.55
2023-04-15T12:22:10.538Z,9.63
2023-04-15T12:24:38.150Z,8.88
2023-04-15T12:27:07.139Z,10.50
2023-04-15T12:29:35.236Z,10.48
2023-04-15T12:32:09.710Z,9.18
2023-04-15T12:34:58.528Z,14.97
2023-04-15T12:37:26.218Z,12.43
2023-04-15T12:39:54.244Z,8.50
2023-04-15T12:42:21.109Z,9.82
2023-04-15T12:44:48.072Z,9.65
2023-04-15T12:47:14.731Z,10.48
2023-04-15T12:49:41.681Z,8.77
2023-04-15T12:52:11.621Z,10.00
2023-04-15T12:54:40.163Z,9.02
2023-04-15T12:57:07.403Z,9.95
2023-04-15T12:59:35.188Z,11.32
2023-04-15T13:02:08.290Z,6.93
2023-04-15T13:04:35.139Z,10.18
2023-04-15T13:07:02.308Z,11.40
2023-04-15T13:09:28.950Z,8.85
2023-04-15T13:11:56.492Z,12.38
2023-04-15T13:14:27.236Z,10.82
2023-04-15T13:16:54.138Z,10.05
2023-04-15T13:19:20.780Z,16.02
2023-04-15T13:21:47.863Z,11.13
2023-04-15T13:24:14.446Z,9.00
2023-04-15T13:26:41.231Z,9.10
2023-04-15T13:29:08.118Z,12.80
2023-04-15T13:31:35.202Z,8.02
2023-04-15T13:34:01.915Z,10.38
2023-04-15T13:36:28.689Z,8.13
2023-04-15T13:38:55.682Z,8.82
2023-04-15T13:41:22.586Z,10.13
2023-04-15T13:43:49.272Z,9.63
2023-04-15T13:46:16.163Z,9.63
2023-04-15T13:48:46.266Z,10.55
2023-04-15T13:51:13.211Z,10.30
2023-04-15T13:53:40.005Z,8.80
2023-04-15T13:56:08.186Z,9.85
2023-04-15T13:58:34.881Z,15.45
2023-04-15T14:01:04.714Z,9.63
2023-04-15T14:03:32.814Z,11.27
2023-04-15T14:05:59.739Z,10.30
2023-04-15T14:08:30.866Z,6.60
2023-04-15T14:10:57.958Z,9.05
2023-04-15T14:13:24.816Z,7.13
2023-04-15T14:15:51.528Z,11.85
2023-04-15T14:18:18.331Z,9.88
2023-04-15T14:20:45.390Z,12.70
2023-04-15T14:23:12.356Z,6.65
2023-04-15T14:25:41.843Z,8.32
2023-04-15T14:28:08.653Z,8.43
2023-04-15T14:30:35.880Z,9.70
2023-04-15T14:33:02.728Z,10.43
2023-04-15T14:35:42.165Z,8.90
2023-04-15T14:38:11.263Z,20.67
2023-04-15T14:40:38.472Z,5.80
2023-04-15T14:43:05.478Z,14.50
2023-04-15T14:45:32.548Z,8.57
2023-04-15T14:48:00.043Z,9.00
2023-04-15T14:50:26.891Z,10.82
2023-04-15T14:52:53.521Z,9.32
2023-04-15T14:55:20.621Z,11.55
2023-04-15T14:57:47.522Z,11.57
2023-04-15T15:00:16.039Z,11.10
2023-04-15T15:02:43.291Z,12.27
2023-04-15T15:05:10.921Z,9.95
2023-04-15T15:07:39.555Z,8.85
2023-04-15T15:10:07.311Z,9.85
2023-04-15T15:12:34.309Z,15.15
2023-04-15T15:15:03.041Z,10.32
2023-04-15T15:17:31.883Z,11.15
2023-04-15T15:19:58.555Z,9.57
2023-04-15T15:22:26.379Z,9.50
2023-04-15T15:24:53.671Z,13.48
2023-04-15T15:27:20.504Z,10.80
2023-04-15T15:29:47.222Z,11.52
2023-04-15T15:32:14.321Z,14.30
2023-04-15T15:34:41.137Z,11.85
2023-04-15T15:37:07.800Z,14.13
2023-04-15T15:39:35.402Z,10.20
2023-04-15T15:42:02.305Z,12.35
2023-04-15T15:44:29.098Z,11.70
2023-04-15T15:46:55.788Z,15.05
2023-04-15T15:49:22.720Z,14.70
2023-04-15T15:51:49.981Z,13.00
2023-04-15T15:54:20.537Z,12.70
2023-04-15T15:56:47.164Z,18.25
2023-04-15T15:59:14.821Z,14.50
2023-04-15T16:01:41.710Z,16.23
2023-04-15T16:04:08.598Z,15.07
2023-04-15T16:06:35.590Z,15.05
2023-04-15T16:09:02.435Z,16.45
2023-04-15T16:11:29.833Z,14.95
2023-04-15T16:13:56.652Z,15.50
2023-04-15T16:16:24.335Z,13.63
2023-04-15T16:18:51.169Z,22.13
2023-04-15T16:21:17.845Z,13.65
2023-04-15T16:23:44.743Z,13.15
2023-04-15T16:26:12.034Z,15.13
2023-04-15T16:28:38.720Z,14.88
2023-04-15T16:31:05.529Z,11.30
2023-04-15T16:33:32.630Z,13.05
2023-04-15T16:35:59.255Z,14.05
2023-04-15T16:38:26.626Z,13.20
2023-04-15T16:40:53.228Z,15.10
2023-04-15T16:43:20.240Z,14.32
2023-04-15T16:45:51.559Z,15.80
2023-04-15T16:48:21.705Z,19.50
2023-04-15T16:50:49.266Z,14.32
2023-04-15T16:53:16.164Z,16.05
2023-04-15T16:55:42.760Z,17.17
2023-04-15T16:58:09.572Z,17.23
2023-04-15T17:00:37.080Z,17.58
2023-04-15T17:03:06.360Z,17.23
2023-04-15T17:05:33.588Z,16.65
2023-04-15T17:08:00.534Z,16.00
2023-04-15T17:10:27.892Z,12.93
2023-04-15T17:12:57.208Z,23.48
2023-04-15T17:15:24.163Z,14.70
2023-04-15T17:17:51.231Z,16.15
2023-04-15T17:20:18.238Z,19.70
2023-04-15T17:22:45.303Z,17.83
2023-04-15T17:25:13.754Z,20.38
2023-04-15T17:27:40.984Z,17.88
2023-04-15T17:30:09.716Z,19.95
2023-04-15T17:32:36.798Z,20.05
2023-04-15T17:35:06.409Z,16.88
2023-04-15T17:37:36.224Z,15.82
2023-04-15T17:40:08.008Z,19.48
2023-04-15T17:42:35.411Z,17.45
2023-04-15T17:45:02.372Z,21.35
2023-04-15T17:47:29.018Z,21.30
2023-04-15T17:49:56.166Z,19.38
2023-04-15T17:52:22.924Z,19.75
2023-04-15T17:54:49.776Z,19.60
2023-04-15T17:57:16.726Z,16.33
2023-04-15T17:59:45.090Z,18.17
2023-04-15T18:02:15.176Z,16.98
2023-04-15T18:04:42.003Z,23.60
2023-04-15T18:07:09.613Z,17.27
2023-04-15T18:09:38.559Z,19.23
2023-04-15T18:12:07.599Z,21.05
2023-04-15T18:14:35.262Z,20.92
2023-04-15T18:17:05.189Z,22.90
2023-04-15T18:19:32.235Z,19.98
2023-04-15T18:22:00.428Z,20.13
2023-04-15T18:24:27.620Z,24.17
2023-04-15T18:26:54.297Z,22.30
2023-04-15T18:29:25.629Z,24.13
2023-04-15T18:31:52.835Z,23.30
2023-04-15T18:34:19.691Z,23.88
2023-04-15T18:36:46.384Z,17.67
2023-04-15T18:39:13.064Z,22.40
2023-04-15T18:41:40.824Z,25.20
2023-04-15T18:44:07.505Z,20.02
2023-04-15T18:46:34.319Z,22.23
2023-04-15T18:49:02.780Z,20.10
2023-04-15T18:51:31.253Z,22.95
2023-04-15T18:53:59.017Z,22.90
2023-04-15T18:56:25.933Z,25.63
2023-04-15T18:59:27.845Z,20.60
2023-04-15T19:01:39.422Z,22.67
2023-04-15T19:04:10.238Z,19.38
2023-04-15T19:06:37.032Z,19.92
2023-04-15T19:09:04.002Z,20.33
2023-04-15T19:11:31.393Z,23.45
2023-04-15T19:13:58.036Z,21.20
2023-04-15T19:16:24.861Z,25.25
2023-04-15T19:18:52.035Z,22.95
2023-04-15T19:21:18.718Z,20.42
2023-04-15T19:23:45.516Z,21.20
2023-04-15T19:26:12.281Z,17.25
2023-04-15T19:28:38.918Z,19.17
2023-04-15T19:31:05.597Z,16.90
2023-04-15T19:33:32.301Z,19.13
2023-04-15T19:36:04.167Z,17.95
2023-04-15T19:38:31.613Z,22.35
2023-04-15T19:40:58.870Z,24.60
2023-04-15T19:43:25.505Z,24.10
2023-04-15T19:45:54.791Z,22.98
2023-04-15T19:48:22.886Z,24.35
2023-04-15T19:50:49.637Z,26.70
2023-04-15T19:53:16.321Z,23.60
2023-04-15T19:55:43.482Z,23.85
2023-04-15T19:58:10.124Z,21.88
2023-04-15T20:00:37.122Z,23.77
2023-04-15T20:03:04.364Z,29.38
2023-04-15T20:05:31.332Z,23.35
2023-04-15T20:07:59.846Z,22.20
2023-04-15T20:10:27.285Z,22.95
2023-04-15T20:12:54.038Z,27.38
2023-04-15T20:15:22.766Z,27.23
2023-04-15T20:17:50.255Z,27.08
2023-04-15T20:20:16.977Z,28.83
2023-04-15T20:22:43.618Z,31.15
2023-04-15T20:25:10.561Z,25.05
2023-04-15T20:27:37.225Z,29.17
2023-04-15T20:30:05.132Z,24.70
2023-04-15T20:32:35.917Z,29.10
2023-04-15T20:35:04.422Z,24.83
2023-04-15T20:37:33.284Z,27.85
2023-04-15T20:40:01.000Z,25.75
2023-04-15T20:42:27.725Z,30.88
2023-04-15T20:44:54.528Z,27.77
2023-04-15T20:47:21.319Z,31.95
2023-04-15T20:49:48.196Z,32.30
2023-04-15T20:52:14.961Z,37.53
2023-04-15T20:54:41.663Z,28.52
2023-04-15T20:57:08.327Z,31.92
2023-04-15T20:59:35.090Z,28.33
2023-04-15T21:02:02.297Z,28.52
2023-04-15T21:04:29.192Z,26.20
2023-04-15T21:06:55.824Z,29.38
2023-04-15T21:09:22.517Z,27.48
2023-04-15T21:14:19.526Z,30.13
2023-04-15T21:16:46.357Z,32.58
2023-04-15T21:19:13.114Z,29.75
2023-04-15T21:21:39.875Z,31.17
2023-04-15T21:24:07.952Z,29.73
2023-04-15T21:26:36.097Z,27.35
2023-04-15T21:29:03.323Z,38.08
2023-04-15T21:31:30.641Z,29.40
2023-04-15T21:33:57.412Z,35.58
2023-04-15T21:36:24.061Z,30.92
2023-04-15T21:38:50.743Z,33.35
2023-04-15T21:41:17.418Z,36.63
2023-04-15T21:43:44.181Z,32.40
2023-04-15T21:46:22.539Z,42.90
2023-04-15T21:48:53.518Z,44.38
2023-04-15T21:51:20.308Z,39.28
2023-04-15T21:53:47.014Z,35.45
2023-04-15T21:56:13.730Z,35.28
2023-04-15T21:58:40.689Z,32.72
2023-04-15T22:01:07.795Z,38.92
2023-04-15T22:03:35.284Z,38.50
2023-04-15T22:06:03.192Z,36.22
2023-04-15T22:08:36.079Z,39.58
2023-04-15T22:11:26.603Z,40.38
2023-04-15T22:13:57.327Z,38.53
2023-04-15T22:16:27.084Z,36.45
2023-04-15T22:18:54.484Z,40.42
2023-04-15T22:21:21.286Z,42.40
2023-04-15T22:23:49.473Z,45.08
2023-04-15T22:26:16.672Z,45.53
2023-04-15T22:28:43.321Z,38.25
2023-04-15T22:31:10.275Z,45.10
2023-04-15T22:33:36.944Z,43.60
2023-04-15T22:36:03.899Z,47.83
2023-04-15T22:38:30.674Z,42.88
2023-04-15T22:40:57.438Z,43.63
2023-04-15T22:43:24.155Z,41.38
2023-04-15T22:45:51.505Z,48.20
2023-04-15T22:48:18.814Z,49.45
2023-04-15T22:50:45.916Z,46.45
2023-04-15T22:53:13.020Z,42.60
2023-04-15T22:55:39.703Z,47.33
2023-04-15T22:58:06.438Z,43.35
2023-04-15T23:00:33.125Z,44.80
2023-04-15T23:03:00.372Z,48.30
2023-04-15T23:05:27.692Z,46.40
2023-04-15T23:07:54.617Z,46.72
2023-04-15T23:10:21.356Z,49.60
2023-04-15T23:12:48.089Z,56.05
2023-04-15T23:15:14.871Z,54.78
2023-04-15T23:17:43.009Z,60.78
2023-04-15T23:20:10.335Z,64.30
2023-04-15T23:22:37.863Z,56.72
2023-04-15T23:25:06.012Z,68.50
2023-04-15T23:27:32.755Z,59.95
2023-04-15T23:29:59.340Z,60.25
2023-04-15T23:32:26.744Z,62.28
2023-04-15T23:34:53.611Z,61.00
2023-04-15T23:37:20.204Z,68.55
2023-04-15T23:39:56.060Z,57.22
2023-04-15T23:42:24.225Z,57.60
2023-04-15T23:44:51.194Z,73.60
2023-04-15T23:47:17.966Z,61.05
2023-04-15T23:49:44.888Z,68.15
2023-04-15T23:52:11.695Z,62.53
2023-04-15T23:54:38.396Z,73.32
2023-04-15T23:57:05.002Z,65.28
2023-04-15T23:59:31.822Z,66.50
